Airport View

Enter AWOS ICAO identifier for current METAR.

ex. KFNL

KYKN 120456Z AUTO 08009KT 10SM CLR M09/M11 A3005 RMK AO2 SLP212 T10891111 FZRANO

12 Dec 2019 05:39

Frequency: 119.05

Phone: 605-665-6072

Other Area AWOS: KLCG - KFSD - KLRJ - KSUX

TAF KFSD 112330Z 1200/1224 12012KT P6SM OVC180 FM120400 12011KT P6SM OVC180 WS014/16037KT FM120900 12007KT P6SM OVC040 FM121200 VRB04KT P6SM BKN010 FM121600 34005KT P6SM BKN018